Time;durP1;ratioP1;P1;durP2;ratioP2;P2;SDS_P1;SDS_P2;PMS_P1;PMS_P2;Temp;Humidity;BMP_temperature;BMP_pressure;BME280_temperature;BME280_humidity;BME280_pressure;Samples;Min_cycle;Max_cycle;Signal;HPM_P1;HPM_P2
2021/08/23 00:01:12;;;;;;;;;4.50;4.00;;;;;20.69;58.69;101982.88;5079485;28;45305;-88
2021/08/23 00:03:38;;;;;;;;;5.00;4.00;;;;;20.72;58.77;101980.31;5078925;27;45631;-87
2021/08/23 00:06:05;;;;;;;;;3.25;3.00;;;;;20.74;58.18;101981.25;5080533;27;45267;-79
2021/08/23 00:08:30;;;;;;;;;6.25;5.75;;;;;20.75;58.40;101982.16;5077865;28;45478;-80
2021/08/23 00:10:57;;;;;;;;;6.25;5.00;;;;;20.74;58.50;101983.88;5077748;27;45207;-80
2021/08/23 00:13:22;;;;;;;;;4.00;4.00;;;;;20.71;58.07;101976.78;5076305;27;46436;-79
2021/08/23 00:15:53;;;;;;;;;2.00;2.00;;;;;20.67;58.75;101980.22;5076545;27;45402;-78
2021/08/23 00:18:19;;;;;;;;;6.00;4.25;;;;;20.62;58.48;101980.97;5076285;27;45258;-78
2021/08/23 00:20:51;;;;;;;;;6.50;2.75;;;;;20.58;58.88;101980.00;5076835;27;45313;-78
2021/08/23 00:23:20;;;;;;;;;7.75;5.50;;;;;20.57;59.12;101988.78;5074684;28;46973;-78
2021/08/23 00:25:46;;;;;;;;;5.25;5.00;;;;;20.54;58.61;101979.06;5076342;27;45558;-78
2021/08/23 00:28:12;;;;;;;;;3.25;3.25;;;;;20.59;58.99;101980.91;5092543;27;45421;-78
2021/08/23 00:30:38;;;;;;;;;5.00;5.00;;;;;20.55;59.33;101987.84;5076326;27;45264;-78
2021/08/23 00:33:04;;;;;;;;;5.50;3.25;;;;;20.54;59.16;101980.81;5075893;27;46331;-78
2021/08/23 00:35:30;;;;;;;;;3.00;3.00;;;;;20.53;58.83;101979.03;5076113;28;45407;-78
2021/08/23 00:37:57;;;;;;;;;5.25;2.25;;;;;20.55;58.98;101972.06;5074960;28;45467;-78
2021/08/23 00:40:24;;;;;;;;;4.50;4.25;;;;;20.52;58.64;101971.97;5076426;27;45535;-82
2021/08/23 00:42:51;;;;;;;;;5.50;5.00;;;;;20.52;58.98;101977.25;5076102;27;46068;-78
2021/08/23 00:45:26;;;;;;;;;4.00;3.25;;;;;20.50;58.82;101971.06;5108759;27;45593;-78
2021/08/23 00:47:51;;;;;;;;;5.75;3.75;;;;;20.49;58.92;101970.19;5076475;27;45330;-81
2021/08/23 00:50:18;;;;;;;;;5.00;4.50;;;;;20.49;58.85;101977.16;5077244;27;45235;-81
2021/08/23 00:52:44;;;;;;;;;3.75;3.00;;;;;20.48;59.52;101972.75;5076966;27;45424;-79
2021/08/23 00:55:10;;;;;;;;;2.25;2.25;;;;;20.48;59.68;101970.13;5078282;27;45325;-83
2021/08/23 00:57:43;;;;;;;;;4.50;3.75;;;;;20.48;59.53;101962.22;5079918;27;45341;-80
2021/08/23 01:00:12;;;;;;;;;4.50;2.75;;;;;20.52;59.62;101969.34;5079982;27;45380;-83
2021/08/23 01:02:45;;;;;;;;;4.00;4.00;;;;;20.52;59.47;101969.34;5079593;27;45934;-80
2021/08/23 01:05:16;;;;;;;;;5.00;5.00;;;;;20.49;59.22;101962.28;5097560;27;45707;-79
2021/08/23 01:08:10;;;;;;;;;7.25;5.00;;;;;20.48;59.01;101971.03;5080863;28;45465;-83
2021/08/23 01:10:46;;;;;;;;;4.50;4.50;;;;;20.44;59.32;101966.53;5079800;27;45358;-82
2021/08/23 01:13:12;;;;;;;;;4.25;3.50;;;;;20.45;59.86;101957.81;5078641;28;46653;-83
2021/08/23 01:15:37;;;;;;;;;6.00;5.00;;;;;20.42;59.67;101965.63;5079406;27;45354;-79
2021/08/23 01:18:04;;;;;;;;;5.50;4.25;;;;;20.37;59.41;101968.16;5080111;27;45454;-81
2021/08/23 01:20:41;;;;;;;;;5.50;5.50;;;;;20.33;59.78;101973.31;5080032;27;45575;-82
2021/08/23 01:23:10;;;;;;;;;3.75;3.75;;;;;20.27;60.14;101971.41;5079559;27;45337;-80
2021/08/23 01:25:37;;;;;;;;;5.00;3.75;;;;;20.25;60.15;101971.41;5081508;27;45700;-81
2021/08/23 01:28:44;;;;;;;;;4.50;2.75;;;;;20.27;60.16;101976.69;5087129;27;45445;-79
2021/08/23 01:31:51;;;;;;;;;5.00;4.50;;;;;20.25;59.93;101971.41;5041326;27;45419;-86
2021/08/23 01:34:19;;;;;;;;;3.50;3.50;;;;;20.25;59.99;101968.75;5028824;28;45278;-83
2021/08/23 01:36:44;;;;;;;;;6.25;5.00;;;;;20.23;60.15;101972.22;5076840;27;45272;-80
2021/08/23 01:39:10;;;;;;;;;2.75;2.75;;;;;20.21;60.57;101974.78;5092644;27;45342;-89
2021/08/23 01:41:36;;;;;;;;;3.50;3.00;;;;;20.21;60.60;101976.53;5092092;27;45219;-81
2021/08/23 01:44:01;;;;;;;;;5.25;5.25;;;;;20.18;60.02;101974.75;5079608;27;46123;-80
2021/08/23 01:46:32;;;;;;;;;4.25;4.25;;;;;20.19;60.13;101965.97;5078761;27;45393;-80
2021/08/23 01:48:59;;;;;;;;;2.25;2.00;;;;;20.18;60.23;101966.84;5079119;27;45436;-80
2021/08/23 01:51:26;;;;;;;;;4.00;4.00;;;;;20.17;60.63;101970.34;5079237;27;45338;-82
2021/08/23 01:53:52;;;;;;;;;6.00;4.00;;;;;20.19;60.14;101965.97;5079077;27;45350;-83
2021/08/23 01:56:17;;;;;;;;;7.50;6.25;;;;;20.20;59.90;101969.50;5079035;27;45404;-81
2021/08/23 01:58:43;;;;;;;;;6.00;4.00;;;;;20.16;60.39;101971.19;5079434;27;45424;-79
2021/08/23 02:01:09;;;;;;;;;3.25;3.25;;;;;20.16;60.45;101970.28;5079288;28;45491;-78
2021/08/23 02:03:36;;;;;;;;;5.50;4.00;;;;;20.15;60.56;101969.41;5078519;28;45389;-81
2021/08/23 02:06:02;;;;;;;;;7.00;4.00;;;;;20.14;60.70;101962.38;5078170;27;45333;-79
2021/08/23 02:08:28;;;;;;;;;4.75;4.25;;;;;20.15;60.56;101973.75;5078601;27;45327;-81
2021/08/23 02:10:53;;;;;;;;;3.00;3.00;;;;;20.13;60.79;101971.09;5078998;27;45235;-79
2021/08/23 02:13:19;;;;;;;;;3.25;3.25;;;;;20.11;60.57;101975.44;5077002;28;47014;-80
2021/08/23 02:15:44;;;;;;;;;3.50;3.50;;;;;20.12;60.81;101981.59;5078798;27;45879;-78
2021/08/23 02:18:10;;;;;;;;;5.50;3.25;;;;;20.12;60.96;101978.97;5079106;27;45297;-80
2021/08/23 02:20:36;;;;;;;;;3.25;3.25;;;;;20.10;61.00;101978.91;5078647;27;45350;-83
2021/08/23 02:23:01;;;;;;;;;6.25;4.00;;;;;20.06;61.10;101977.06;5078517;27;45399;-80
2021/08/23 02:25:27;;;;;;;;;4.50;4.00;;;;;20.05;60.61;101977.91;5078174;27;45255;-80
2021/08/23 02:27:54;;;;;;;;;4.00;3.25;;;;;20.06;60.77;101979.69;5078542;27;45429;-81
2021/08/23 02:30:21;;;;;;;;;4.00;4.00;;;;;20.08;61.53;101978.00;5078597;27;45349;-79
2021/08/23 02:32:46;;;;;;;;;5.25;5.25;;;;;20.08;61.15;101978.88;5078066;27;45350;-80
2021/08/23 02:35:12;;;;;;;;;6.50;5.50;;;;;20.05;60.82;101980.56;5078414;27;45260;-78
2021/08/23 02:37:38;;;;;;;;;4.00;4.00;;;;;20.06;61.23;101979.69;5077992;28;45270;-79
2021/08/23 02:40:05;;;;;;;;;4.75;3.50;;;;;20.01;60.91;101976.97;5079896;27;45555;-78
2021/08/23 02:42:31;;;;;;;;;6.00;3.00;;;;;19.99;61.82;101968.16;5080285;27;46020;-81
2021/08/23 02:44:56;;;;;;;;;7.75;4.25;;;;;19.98;61.46;101976.88;5078645;27;45540;-82
2021/08/23 02:47:22;;;;;;;;;5.75;5.75;;;;;19.96;61.14;101978.56;5077969;27;45361;-79
2021/08/23 02:49:48;;;;;;;;;5.75;3.75;;;;;19.93;61.64;101975.84;5078611;27;45379;-83
2021/08/23 02:52:13;;;;;;;;;4.50;4.50;;;;;19.93;61.27;101975.84;5078200;27;46110;-79
2021/08/23 02:54:39;;;;;;;;;5.25;4.00;;;;;19.94;61.67;101977.63;5077832;27;45392;-83
2021/08/23 02:57:04;;;;;;;;;5.75;5.75;;;;;19.92;61.49;101974.97;5078166;27;45415;-83
2021/08/23 02:59:30;;;;;;;;;5.00;3.50;;;;;19.91;62.08;101967.06;5078037;27;45412;-79
2021/08/23 03:01:56;;;;;;;;;9.25;4.25;;;;;19.90;61.81;101966.16;5077933;27;46343;-80
2021/08/23 03:04:21;;;;;;;;;6.25;6.25;;;;;19.88;61.46;101962.59;5080636;27;45350;-81
2021/08/23 03:06:47;;;;;;;;;5.00;3.25;;;;;19.93;61.86;101967.97;5078980;27;45406;-83
2021/08/23 03:09:12;;;;;;;;;7.25;4.00;;;;;19.89;62.06;101968.78;5082178;27;45314;-84
2021/08/23 03:11:38;;;;;;;;;4.00;4.00;;;;;19.86;62.13;101966.97;5079429;27;45873;-84
2021/08/23 03:14:04;;;;;;;;;8.25;6.50;;;;;19.80;62.00;101970.28;5078582;27;45319;-88
2021/08/23 03:16:30;;;;;;;;;7.00;6.00;;;;;19.76;62.59;101964.91;5079351;28;45229;-88
2021/08/23 03:18:55;;;;;;;;;7.00;4.00;;;;;19.78;62.69;101971.06;5091107;27;45207;-86
2021/08/23 03:21:21;;;;;;;;;6.00;4.25;;;;;19.79;62.48;101971.13;5082381;27;45561;-85
2021/08/23 03:23:47;;;;;;;;;5.25;4.75;;;;;19.79;62.48;101970.22;5078030;27;45341;-79
2021/08/23 03:26:12;;;;;;;;;6.00;5.00;;;;;19.82;62.23;101974.66;5078041;27;45251;-79
2021/08/23 03:28:38;;;;;;;;;6.25;5.25;;;;;19.80;62.44;101967.66;5077568;27;45405;-80
2021/08/23 03:31:05;;;;;;;;;6.00;6.00;;;;;19.79;62.88;101970.22;5077773;27;46420;-80
2021/08/23 03:33:30;;;;;;;;;5.00;5.00;;;;;19.78;62.81;101973.72;5077282;28;45743;-82
2021/08/23 03:35:56;;;;;;;;;7.00;7.00;;;;;19.78;63.01;101977.25;5077903;27;45351;-81
2021/08/23 03:38:21;;;;;;;;;5.25;4.75;;;;;19.80;62.61;101972.91;5079633;27;45453;-81
2021/08/23 03:40:47;;;;;;;;;7.25;6.50;;;;;19.81;62.78;101971.16;5093708;27;46234;-79
2021/08/23 03:43:12;;;;;;;;;7.00;5.50;;;;;19.80;62.75;101975.53;5077972;28;45367;-80
2021/08/23 03:45:38;;;;;;;;;7.50;5.50;;;;;19.82;62.74;101977.28;5077747;27;45189;-83
2021/08/23 03:48:04;;;;;;;;;3.50;3.50;;;;;19.80;62.87;101978.19;5078178;27;45509;-80
2021/08/23 03:50:30;;;;;;;;;6.75;5.75;;;;;19.83;62.84;101977.34;5077507;27;45336;-79
2021/08/23 03:52:55;;;;;;;;;7.00;5.00;;;;;19.85;63.11;101974.75;5081081;27;45359;-80
2021/08/23 03:55:22;;;;;;;;;5.25;5.25;;;;;19.83;63.23;101974.72;5080363;27;45754;-84
2021/08/23 03:57:48;;;;;;;;;6.25;5.25;;;;;19.85;62.83;101972.13;5078256;27;45321;-79
2021/08/23 04:00:13;;;;;;;;;7.00;6.25;;;;;19.83;62.69;101973.81;5078169;28;45983;-80
2021/08/23 04:02:39;;;;;;;;;7.00;6.00;;;;;19.83;62.88;101972.09;5076032;28;45275;-80
2021/08/23 04:05:05;;;;;;;;;10.00;6.25;;;;;19.82;62.98;101970.31;5078037;27;45299;-80
2021/08/23 04:07:31;;;;;;;;;6.25;5.00;;;;;19.80;63.24;101966.75;5078639;27;45571;-80
2021/08/23 04:09:56;;;;;;;;;7.50;5.75;;;;;19.78;63.13;101969.34;5077434;28;45382;-82
2021/08/23 04:12:22;;;;;;;;;6.25;5.50;;;;;19.78;63.38;101974.63;5075644;28;45311;-85
2021/08/23 04:14:48;;;;;;;;;7.75;6.25;;;;;19.80;63.36;101974.63;5077333;27;45365;-80
2021/08/23 04:17:13;;;;;;;;;8.00;7.00;;;;;19.84;63.71;101967.72;5077380;27;45534;-80
2021/08/23 04:19:39;;;;;;;;;8.00;6.00;;;;;19.87;63.68;101967.84;5075332;28;46145;-82
2021/08/23 04:22:05;;;;;;;;;5.25;4.00;;;;;19.88;63.21;101972.25;5076485;27;45247;-78
2021/08/23 04:24:30;;;;;;;;;5.50;5.00;;;;;19.91;62.96;101972.34;5076131;28;45528;-78
2021/08/23 04:26:56;;;;;;;;;5.00;4.00;;;;;19.94;63.65;101975.00;5076561;27;45191;-79
2021/08/23 04:29:22;;;;;;;;;8.00;6.50;;;;;19.93;63.13;101973.22;5075668;27;46151;-83
2021/08/23 04:31:47;;;;;;;;;6.50;5.00;;;;;19.93;63.65;101976.75;5074845;28;45414;-78
2021/08/23 04:34:13;;;;;;;;;7.00;6.25;;;;;19.90;63.36;101974.06;5078173;27;45385;-78
2021/08/23 04:36:39;;;;;;;;;6.00;6.00;;;;;19.90;63.11;101973.19;5076110;28;45488;-78
2021/08/23 04:39:06;;;;;;;;;8.00;7.25;;;;;19.93;63.27;101978.50;5076196;27;45895;-80
2021/08/23 04:41:41;;;;;;;;;9.25;8.00;;;;;19.94;63.42;101980.28;5076094;27;45755;-81
2021/08/23 04:44:07;;;;;;;;;5.75;4.75;;;;;19.95;63.46;101975.06;5092231;27;45344;-80
2021/08/23 04:46:33;;;;;;;;;6.25;4.00;;;;;19.97;63.28;101982.97;5077325;27;45485;-85
2021/08/23 04:48:59;;;;;;;;;8.00;6.75;;;;;19.98;63.63;101981.25;5076501;28;45260;-80
2021/08/23 04:51:25;;;;;;;;;7.50;7.50;;;;;20.00;63.25;101987.41;5091727;27;45330;-85
2021/08/23 04:53:50;;;;;;;;;6.00;4.25;;;;;20.01;63.13;101983.94;5076754;27;45298;-89
2021/08/23 04:56:16;;;;;;;;;5.50;5.50;;;;;20.03;63.69;101985.75;5075589;28;45584;-85
2021/08/23 04:58:43;;;;;;;;;8.00;6.50;;;;;20.06;63.04;101982.34;5077829;27;45438;-84
2021/08/23 05:01:09;;;;;;;;;8.25;6.75;;;;;20.07;63.26;101990.25;5081684;27;45425;-84
2021/08/23 05:03:35;;;;;;;;;8.50;7.75;;;;;20.06;63.44;101991.09;5081816;27;45418;-79
2021/08/23 05:06:00;;;;;;;;;7.00;6.00;;;;;20.07;63.22;102002.50;5075002;28;45401;-78
2021/08/23 05:08:26;;;;;;;;;9.25;8.25;;;;;20.08;63.63;101999.91;5075606;27;45743;-78
2021/08/23 05:10:51;;;;;;;;;5.75;5.75;;;;;20.09;63.70;102000.78;5075841;27;45295;-79
2021/08/23 05:13:17;;;;;;;;;11.00;4.75;;;;;20.10;63.17;102002.56;5075826;27;45469;-78
2021/08/23 05:15:43;;;;;;;;;7.00;6.00;;;;;20.08;63.70;101999.03;5076459;27;45366;-78
2021/08/23 05:18:08;;;;;;;;;7.25;7.00;;;;;20.06;63.21;101998.97;5074343;28;46235;-79
2021/08/23 05:20:34;;;;;;;;;8.75;6.00;;;;;20.03;63.71;102000.66;5075436;28;45369;-80
2021/08/23 05:23:00;;;;;;;;;12.75;9.50;;;;;20.06;63.18;102004.22;5075738;27;45283;-78
2021/08/23 05:25:25;;;;;;;;;7.00;6.50;;;;;20.04;63.42;102003.31;5075825;27;45573;-80
2021/08/23 05:27:51;;;;;;;;;8.50;8.25;;;;;20.03;63.08;102012.03;5075573;27;45547;-78
2021/08/23 05:30:17;;;;;;;;;10.00;8.00;;;;;20.02;63.92;102012.91;5075921;27;45310;-78
2021/08/23 05:32:42;;;;;;;;;8.25;6.50;;;;;20.01;63.75;102015.47;5076458;27;45437;-80
2021/08/23 05:35:08;;;;;;;;;9.75;9.00;;;;;20.00;63.81;102013.72;5076778;27;45635;-79
2021/08/23 05:37:34;;;;;;;;;8.25;7.50;;;;;20.01;63.82;102018.13;5075369;28;46567;-79
2021/08/23 05:40:00;;;;;;;;;9.75;6.50;;;;;19.99;63.08;102022.44;5075759;28;45272;-77
2021/08/23 05:42:26;;;;;;;;;10.50;9.75;;;;;19.93;63.23;102024.09;5079039;27;45301;-79
2021/08/23 05:44:53;;;;;;;;;12.50;9.00;;;;;19.88;63.42;102033.56;5079632;27;45626;-79
2021/08/23 05:47:20;;;;;;;;;7.50;6.25;;;;;19.85;63.75;102029.94;5078823;27;45879;-78
2021/08/23 05:49:45;;;;;;;;;10.00;7.75;;;;;19.86;64.03;102029.13;5079152;27;45582;-77
2021/08/23 05:52:11;;;;;;;;;10.00;9.75;;;;;19.86;63.29;102037.94;5079431;27;45344;-78
2021/08/23 05:54:37;;;;;;;;;15.00;10.75;;;;;19.86;63.62;102031.75;5080212;27;45338;-77
2021/08/23 05:57:03;;;;;;;;;11.75;9.50;;;;;19.82;63.18;102028.13;5080600;27;45538;-77
2021/08/23 05:59:29;;;;;;;;;11.00;8.75;;;;;19.79;63.63;102030.66;5083020;28;45425;-78
2021/08/23 06:01:56;;;;;;;;;12.50;9.75;;;;;19.75;63.84;102036.72;5080905;28;45349;-81
2021/08/23 06:04:22;;;;;;;;;12.00;10.00;;;;;19.75;63.67;102036.72;5087025;27;45497;-80
2021/08/23 06:06:48;;;;;;;;;11.50;10.50;;;;;19.74;63.83;102045.44;5084393;28;46165;-83
2021/08/23 06:09:15;;;;;;;;;9.75;9.25;;;;;19.72;63.55;102047.13;5079060;28;45299;-83
2021/08/23 06:11:41;;;;;;;;;11.75;8.50;;;;;19.72;63.66;102050.63;5077489;28;45371;-82
2021/08/23 06:14:07;;;;;;;;;9.25;8.75;;;;;19.75;64.04;102041.97;5079786;27;45251;-84
2021/08/23 06:16:32;;;;;;;;;14.00;10.50;;;;;19.82;63.67;102048.25;5077023;28;46932;-84
2021/08/23 06:18:58;;;;;;;;;9.25;9.25;;;;;19.86;64.16;102058.03;5090357;27;45374;-87
2021/08/23 06:21:23;;;;;;;;;11.25;9.50;;;;;19.88;63.90;102044.09;5078732;27;45440;-84
2021/08/23 06:23:49;;;;;;;;;9.25;8.25;;;;;19.92;63.35;102048.59;5087176;27;45357;-80
2021/08/23 06:26:14;;;;;;;;;11.25;7.75;;;;;19.99;63.50;102057.53;5081127;28;46147;-85
2021/08/23 06:28:40;;;;;;;;;12.00;9.25;;;;;20.02;63.04;102049.72;5082305;27;45318;-89
2021/08/23 06:31:06;;;;;;;;;11.75;8.75;;;;;20.06;62.80;102050.69;5078923;28;45345;-81
2021/08/23 06:33:31;;;;;;;;;12.25;10.00;;;;;20.05;62.71;102055.03;5093618;27;45262;-80
2021/08/23 06:35:57;;;;;;;;;12.25;9.50;;;;;20.03;62.54;102048.84;5078365;27;46003;-81
2021/08/23 06:38:22;;;;;;;;;11.25;9.75;;;;;20.02;63.07;102052.34;5077772;27;45472;-80
2021/08/23 06:40:48;;;;;;;;;13.50;11.00;;;;;20.03;62.98;102047.97;5078005;27;45476;-81
2021/08/23 06:43:13;;;;;;;;;11.50;11.50;;;;;20.04;62.87;102055.00;5078799;27;45592;-80
2021/08/23 06:45:39;;;;;;;;;16.00;13.25;;;;;20.07;62.83;102048.09;5077618;28;45979;-82
2021/08/23 06:48:05;;;;;;;;;14.50;10.25;;;;;20.10;62.77;102052.53;5078344;27;45377;-85
2021/08/23 06:50:30;;;;;;;;;10.00;9.25;;;;;20.16;62.56;102054.41;5077958;27;45211;-80
2021/08/23 06:52:56;;;;;;;;;13.75;9.50;;;;;20.21;61.96;102053.69;5078097;28;45188;-81
2021/08/23 06:55:22;;;;;;;;;14.25;13.00;;;;;20.21;61.83;102060.69;5077070;27;45311;-80
2021/08/23 06:57:47;;;;;;;;;11.50;10.75;;;;;20.25;61.93;102052.00;5077680;27;45262;-80
2021/08/23 07:00:14;;;;;;;;;10.75;10.75;;;;;20.28;62.00;102057.34;5077917;27;45177;-78
2021/08/23 07:02:41;;;;;;;;;11.00;9.25;;;;;20.28;62.24;102057.34;5078106;28;45344;-80
2021/08/23 07:05:07;;;;;;;;;8.50;8.00;;;;;20.30;62.12;102063.56;5077313;27;45486;-79
2021/08/23 07:07:33;;;;;;;;;14.50;12.00;;;;;20.34;61.60;102054.91;5077536;27;45673;-80
2021/08/23 07:09:59;;;;;;;;;12.75;10.00;;;;;20.37;62.37;102056.69;5077457;27;45280;-79
2021/08/23 07:12:24;;;;;;;;;13.25;12.25;;;;;20.45;61.80;102062.16;5077595;27;45370;-80
2021/08/23 07:14:50;;;;;;;;;14.25;10.50;;;;;20.50;62.12;102063.13;5076072;28;47730;-79
2021/08/23 07:17:15;;;;;;;;;15.75;12.00;;;;;20.53;62.02;102064.09;5076897;27;45428;-79
2021/08/23 07:19:41;;;;;;;;;13.00;12.00;;;;;20.55;61.00;102058.88;5077742;27;45343;-80
2021/08/23 07:22:06;;;;;;;;;15.75;14.75;;;;;20.55;61.40;102059.75;5077662;27;45227;-81
2021/08/23 07:24:32;;;;;;;;;12.75;11.00;;;;;20.59;61.48;102065.09;5076949;27;45522;-81
2021/08/23 07:26:58;;;;;;;;;14.00;13.00;;;;;20.57;61.11;102059.81;5077152;27;45476;-81
2021/08/23 07:29:25;;;;;;;;;14.25;13.75;;;;;20.57;61.51;102060.69;5077170;27;45469;-82
2021/08/23 07:31:51;;;;;;;;;12.75;10.25;;;;;20.61;61.51;102056.38;5077333;27;45512;-81
2021/08/23 07:34:16;;;;;;;;;14.00;10.25;;;;;20.64;61.03;102061.72;5077260;27;45813;-81
2021/08/23 07:36:42;;;;;;;;;12.00;10.25;;;;;20.69;60.89;102059.19;5077420;27;45337;-81
2021/08/23 07:39:08;;;;;;;;;13.75;12.00;;;;;20.70;60.50;102050.44;5077148;27;45333;-81
2021/08/23 07:41:33;;;;;;;;;10.75;10.75;;;;;20.72;60.74;102046.13;5077260;27;45251;-81
2021/08/23 07:43:59;;;;;;;;;17.00;13.50;;;;;20.78;60.24;102054.16;5076746;28;46356;-81
2021/08/23 07:46:24;;;;;;;;;13.25;13.25;;;;;20.82;59.43;102052.50;5076568;28;45749;-81
2021/08/23 07:48:50;;;;;;;;;9.50;8.25;;;;;20.81;59.48;102053.34;5076969;27;45341;-81
2021/08/23 07:51:16;;;;;;;;;11.50;8.75;;;;;20.80;60.01;102063.00;5076931;27;45333;-81
2021/08/23 07:53:44;;;;;;;;;11.75;11.75;;;;;20.77;59.59;102055.03;5076878;28;45275;-80
2021/08/23 07:56:10;;;;;;;;;11.25;9.25;;;;;20.75;59.11;102058.47;5092413;27;45719;-78
2021/08/23 07:58:36;;;;;;;;;10.25;8.25;;;;;20.75;59.12;102050.59;5076680;27;45360;-80
2021/08/23 08:01:02;;;;;;;;;16.00;9.50;;;;;20.78;59.28;102055.94;5076789;27;45281;-81
2021/08/23 08:03:27;;;;;;;;;13.25;9.25;;;;;20.83;59.05;102046.38;5075708;27;45989;-81
2021/08/23 08:05:53;;;;;;;;;9.25;7.50;;;;;20.84;59.29;102045.53;5076490;27;45337;-81
2021/08/23 08:08:18;;;;;;;;;10.50;10.50;;;;;20.88;59.35;102052.66;5076398;27;45183;-81
2021/08/23 08:10:44;;;;;;;;;7.75;7.50;;;;;20.92;58.54;102049.22;5077341;27;45303;-81
2021/08/23 08:13:10;;;;;;;;;10.00;9.25;;;;;21.01;58.96;102053.78;5076794;27;45346;-81
2021/08/23 08:15:36;;;;;;;;;9.50;8.00;;;;;21.12;59.12;102060.19;5077850;27;45289;-81
2021/08/23 08:18:02;;;;;;;;;10.50;9.75;;;;;21.19;58.04;102061.19;5080561;27;45433;-80
2021/08/23 08:20:28;;;;;;;;;8.00;8.00;;;;;21.25;57.83;102063.94;5085582;27;45333;-81
2021/08/23 08:22:54;;;;;;;;;9.00;8.00;;;;;21.34;57.68;102058.84;5078954;27;45438;-81
2021/08/23 08:25:19;;;;;;;;;11.25;9.00;;;;;21.44;57.27;102059.94;5074656;28;45438;-81
2021/08/23 08:27:45;;;;;;;;;8.50;7.50;;;;;21.50;57.57;102064.44;5075075;28;45286;-82
2021/08/23 08:30:14;;;;;;;;;7.25;7.25;;;;;21.55;57.12;102064.53;5076675;27;45326;-81
2021/08/23 08:32:40;;;;;;;;;10.75;9.00;;;;;21.54;56.93;102062.75;5076331;28;46026;-82
2021/08/23 08:35:06;;;;;;;;;11.25;8.25;;;;;21.56;56.66;102059.28;5076001;27;45294;-81
2021/08/23 08:37:32;;;;;;;;;9.75;8.00;;;;;21.60;56.29;102060.25;5074630;28;45288;-80
2021/08/23 08:39:57;;;;;;;;;9.75;8.00;;;;;21.66;56.53;102052.50;5076161;27;45288;-81
2021/08/23 08:42:23;;;;;;;;;14.25;11.00;;;;;21.78;56.51;102049.16;5075520;27;45261;-80
2021/08/23 08:44:48;;;;;;;;;9.75;7.25;;;;;21.83;56.24;102052.78;5091320;27;45433;-80
2021/08/23 08:47:18;;;;;;;;;9.00;9.00;;;;;21.85;56.07;102055.44;5076411;27;45470;-81
2021/08/23 08:49:45;;;;;;;;;9.25;8.00;;;;;21.85;55.94;102050.19;5076654;28;45451;-80
2021/08/23 08:52:12;;;;;;;;;8.25;7.25;;;;;21.93;56.01;102054.72;5076112;28;45255;-79
2021/08/23 08:54:39;;;;;;;;;5.00;2.75;;;;;22.01;55.60;102056.59;5075607;27;45380;-80
2021/08/23 08:57:05;;;;;;;;;8.25;7.00;;;;;22.06;56.00;102057.59;5076105;27;45312;-80
2021/08/23 08:59:35;;;;;;;;;8.25;7.75;;;;;22.15;55.84;102064.75;5075721;27;45527;-80
2021/08/23 09:02:02;;;;;;;;;10.25;9.50;;;;;22.19;55.24;102063.94;5075582;27;45414;-81
2021/08/23 09:04:32;;;;;;;;;9.75;8.00;;;;;22.21;55.33;102064.88;5075275;27;45735;-80
2021/08/23 09:06:59;;;;;;;;;9.75;9.00;;;;;22.19;55.36;102067.47;5075793;27;45373;-80
2021/08/23 09:09:26;;;;;;;;;10.00;8.75;;;;;22.17;55.92;102061.28;5075708;28;45515;-80
2021/08/23 09:12:12;;;;;;;;;9.25;9.25;;;;;22.11;55.39;102064.72;5075416;27;45488;-80
2021/08/23 09:14:48;;;;;;;;;8.25;8.00;;;;;22.04;55.51;102061.94;5075545;27;45604;-81
2021/08/23 09:17:13;;;;;;;;;8.00;6.75;;;;;21.95;55.27;102065.28;5077918;28;45401;-80
2021/08/23 09:19:40;;;;;;;;;8.75;8.25;;;;;21.87;55.71;102064.28;5079322;28;45487;-80
2021/08/23 09:22:18;;;;;;;;;10.75;8.50;;;;;21.80;56.03;102068.53;5094931;27;46464;-80
2021/08/23 09:24:44;;;;;;;;;10.75;9.25;;;;;21.81;56.02;102075.59;5079413;27;45627;-81
2021/08/23 09:27:14;;;;;;;;;7.75;7.50;;;;;21.89;56.06;102074.00;5079413;27;45293;-81
2021/08/23 09:29:59;;;;;;;;;7.00;6.75;;;;;21.98;56.27;102075.00;5079736;27;45480;-81
2021/08/23 09:32:29;;;;;;;;;10.75;8.00;;;;;21.98;55.98;102075.91;5078739;27;46560;-81
2021/08/23 09:34:56;;;;;;;;;10.25;8.25;;;;;22.05;55.88;102076.91;5079245;27;45951;-81
2021/08/23 09:37:27;;;;;;;;;9.50;8.25;;;;;22.07;55.65;102069.91;5095163;27;45257;-81
2021/08/23 09:40:07;;;;;;;;;9.75;8.25;;;;;22.09;56.03;102070.81;5079981;27;45378;-81
2021/08/23 09:42:32;;;;;;;;;9.50;9.00;;;;;22.08;55.28;102075.22;5079162;27;46024;-82
2021/08/23 09:44:58;;;;;;;;;9.00;6.75;;;;;22.10;55.60;102075.22;5079030;27;45318;-81
2021/08/23 09:47:30;;;;;;;;;8.00;8.00;;;;;22.05;55.47;102076.91;5078634;27;45538;-80
2021/08/23 09:49:57;;;;;;;;;9.25;8.25;;;;;22.00;55.52;102075.94;5078945;27;45429;-81
2021/08/23 09:52:31;;;;;;;;;9.00;7.25;;;;;21.92;55.75;102073.19;5078339;27;45513;-81
2021/08/23 09:55:12;;;;;;;;;8.50;8.25;;;;;21.86;56.44;102076.59;5084060;28;45450;-80
2021/08/23 09:57:39;;;;;;;;;9.00;8.00;;;;;21.91;56.18;102080.19;5080967;27;45417;-80
2021/08/23 10:00:08;;;;;;;;;7.25;7.25;;;;;22.00;56.05;102086.47;5079257;28;45572;-81
2021/08/23 10:02:34;;;;;;;;;10.25;7.25;;;;;22.14;56.01;102074.44;5078382;27;45924;-80
2021/08/23 10:05:01;;;;;;;;;9.00;8.75;;;;;22.29;55.80;102084.34;5078393;28;45751;-81
2021/08/23 10:07:28;;;;;;;;;8.00;6.75;;;;;22.45;55.18;102077.59;5078419;27;45357;-80
2021/08/23 10:10:00;;;;;;;;;10.00;7.25;;;;;22.57;55.30;102068.97;5078972;27;45219;-81
2021/08/23 10:12:27;;;;;;;;;8.00;6.50;;;;;22.63;55.11;102077.00;5078083;27;45377;-80
2021/08/23 10:14:53;;;;;;;;;9.75;8.50;;;;;22.67;54.85;102072.66;5078366;28;45447;-80
2021/08/23 10:17:20;;;;;;;;;9.75;7.75;;;;;22.63;54.50;102069.06;5078285;27;45385;-80
2021/08/23 10:19:47;;;;;;;;;7.25;6.00;;;;;22.52;54.76;102068.03;5080376;28;45258;-81
2021/08/23 10:22:14;;;;;;;;;4.50;4.50;;;;;22.43;54.48;102074.03;5079264;27;45918;-80
2021/08/23 10:24:41;;;;;;;;;8.75;8.25;;;;;22.31;55.15;102073.81;5078631;27;45697;-80
2021/08/23 10:27:07;;;;;;;;;5.75;5.75;;;;;22.27;55.33;102067.59;5078130;27;45428;-80
2021/08/23 10:29:39;;;;;;;;;7.00;7.00;;;;;22.19;55.84;102069.22;5076983;28;45578;-80
2021/08/23 10:32:09;;;;;;;;;8.00;7.00;;;;;22.13;55.99;102077.91;5078117;27;46087;-81
2021/08/23 10:34:37;;;;;;;;;8.50;7.50;;;;;22.10;55.59;102069.94;5063308;28;45387;-81
2021/08/23 10:37:18;;;;;;;;;8.00;8.00;;;;;22.06;56.09;102074.28;5057911;28;45259;-81
2021/08/23 10:39:43;;;;;;;;;7.50;7.50;;;;;22.03;56.09;102071.59;5058365;28;45446;-81
2021/08/23 10:42:14;;;;;;;;;5.50;5.50;;;;;21.97;56.35;102073.25;5057502;28;45447;-81
2021/08/23 10:44:40;;;;;;;;;7.00;7.00;;;;;21.87;56.37;102073.06;5056627;28;45678;-81
2021/08/23 10:47:09;;;;;;;;;7.25;7.25;;;;;21.82;56.98;102074.75;5057553;28;45379;-81
2021/08/23 10:49:42;;;;;;;;;13.25;8.25;;;;;21.77;56.89;102072.03;5057668;28;45934;-81
2021/08/23 10:52:08;;;;;;;;;9.25;9.00;;;;;21.76;57.68;102074.63;5055986;28;47120;-79
2021/08/23 10:54:37;;;;;;;;;7.00;6.00;;;;;21.71;57.75;102071.03;5039102;28;45652;-81
2021/08/23 10:57:02;;;;;;;;;9.00;8.75;;;;;21.68;57.86;102073.59;5057523;28;45407;-81
2021/08/23 10:59:40;;;;;;;;;6.75;6.75;;;;;21.71;57.81;102068.38;5057585;28;45213;-81
2021/08/23 11:02:06;;;;;;;;;10.75;6.00;;;;;21.73;57.56;102075.44;5057296;28;46160;-81
2021/08/23 11:04:41;;;;;;;;;6.00;6.00;;;;;21.76;57.49;102069.34;5056937;28;45751;-80
2021/08/23 11:07:10;;;;;;;;;9.75;7.50;;;;;21.77;57.76;102068.47;5057373;28;45388;-81
2021/08/23 11:09:42;;;;;;;;;7.00;7.00;;;;;21.79;57.97;102069.41;5057272;28;45536;-80
2021/08/23 11:12:09;;;;;;;;;8.75;6.00;;;;;21.83;58.25;102067.72;5055572;28;47190;-79
2021/08/23 11:14:59;;;;;;;;;9.50;8.25;;;;;21.85;58.88;102066.00;5038737;28;45654;-80
2021/08/23 11:17:30;;;;;;;;;8.25;7.75;;;;;21.90;58.32;102062.59;5056844;28;45323;-81
2021/08/23 11:19:58;;;;;;;;;8.75;8.75;;;;;21.99;58.22;102059.22;5057326;28;45591;-80
2021/08/23 11:22:23;;;;;;;;;9.00;8.00;;;;;22.12;58.28;102065.59;5056640;28;46415;-80